Time;durP1;ratioP1;P1;durP2;ratioP2;P2;SDS_P1;SDS_P2;PMS_P1;PMS_P2;Temp;Humidity;BMP_temperature;BMP_pressure;BME280_temperature;BME280_humidity;BME280_pressure;Samples;Min_cycle;Max_cycle;Signal;HPM_P1;HPM_P2
2022/09/05 00:01:31;;;;;;;3.90;2.50;;;16.00;99.90;;;16.88;100.00;98558.22;5032443;28;20550;-84
2022/09/05 00:04:13;;;;;;;3.67;3.00;;;16.00;99.90;;;16.83;100.00;98553.59;5032450;28;20469;-84
2022/09/05 00:07:04;;;;;;;4.10;2.90;;;16.00;99.90;;;16.73;100.00;98550.59;5034303;28;20472;-84
2022/09/05 00:10:07;;;;;;;3.50;2.50;;;16.00;99.90;;;16.64;100.00;98545.81;5030578;28;21315;-85
2022/09/05 00:12:40;;;;;;;2.63;2.40;;;15.90;99.90;;;16.67;100.00;98548.81;5032304;28;20465;-84
2022/09/05 00:15:25;;;;;;;2.90;2.50;;;15.90;99.90;;;16.74;100.00;98548.78;5030361;28;20579;-84
2022/09/05 00:18:29;;;;;;;3.20;2.63;;;15.80;99.90;;;16.63;100.00;98549.44;5018742;28;20470;-84
2022/09/05 00:21:41;;;;;;;4.50;2.80;;;15.80;99.90;;;16.55;100.00;98547.88;5017431;28;20561;-84
2022/09/05 00:24:53;;;;;;;3.13;2.60;;;15.70;99.90;;;16.56;100.00;98542.38;5017876;28;20542;-84
2022/09/05 00:27:54;;;;;;;3.17;2.63;;;15.70;99.90;;;16.53;100.00;98549.91;5018439;28;20570;-84
2022/09/05 00:30:23;;;;;;;3.30;2.60;;;15.70;99.90;;;16.40;100.00;98545.50;5017918;28;20463;-84
2022/09/05 00:33:30;;;;;;;3.23;2.57;;;15.60;99.90;;;16.37;100.00;98543.31;5019402;28;20464;-84
2022/09/05 00:36:31;;;;;;;3.40;3.00;;;15.60;99.90;;;16.47;100.00;98541.00;5018850;28;20461;-84
2022/09/05 00:39:07;;;;;;;3.63;3.00;;;15.50;99.90;;;16.46;100.00;98539.38;5017745;28;20465;-83
2022/09/05 00:41:39;;;;;;;4.17;2.50;;;15.50;99.90;;;16.29;100.00;98548.81;5048167;28;20466;-84
2022/09/05 00:44:13;;;;;;;3.33;2.40;;;15.50;99.90;;;16.19;100.00;98548.47;5019495;28;20467;-83
2022/09/05 00:46:55;;;;;;;3.03;2.30;;;15.50;99.90;;;16.24;100.00;98547.84;5018227;28;20529;-84
2022/09/05 00:49:33;;;;;;;5.27;2.53;;;15.40;99.90;;;16.26;100.00;98543.16;5014276;28;20477;-83
2022/09/05 00:52:10;;;;;;;3.20;2.70;;;15.40;99.90;;;16.28;100.00;98557.75;5017195;28;20489;-84
2022/09/05 00:55:23;;;;;;;3.40;2.57;;;15.40;99.90;;;16.32;100.00;98545.75;5018466;28;20493;-84
2022/09/05 00:58:39;;;;;;;3.30;2.30;;;15.40;99.90;;;16.24;100.00;98555.75;4994944;28;20505;-84
2022/09/05 01:01:32;;;;;;;2.43;2.23;;;15.40;99.90;;;16.17;100.00;98549.69;5015868;28;20903;-84
2022/09/05 01:04:27;;;;;;;4.27;2.40;;;15.20;99.90;;;16.17;100.00;98555.78;5017697;28;20471;-84
2022/09/05 01:07:29;;;;;;;2.70;2.20;;;15.20;99.90;;;16.16;100.00;98553.34;5019457;28;20845;-84
2022/09/05 01:10:19;;;;;;;4.23;2.90;;;15.20;99.90;;;16.11;100.00;98548.69;5016766;28;20505;-84
2022/09/05 01:13:14;;;;;;;2.70;2.43;;;15.20;99.90;;;16.01;100.00;98550.97;5018121;28;20541;-84
2022/09/05 01:15:57;;;;;;;3.73;3.00;;;15.10;99.90;;;15.97;100.00;98549.75;5017843;28;20972;-84
2022/09/05 01:18:46;;;;;;;3.40;2.33;;;15.10;99.90;;;15.96;100.00;98548.16;5016558;28;20525;-84
2022/09/05 01:22:01;;;;;;;2.33;2.13;;;15.10;99.90;;;15.98;100.00;98548.75;5015472;28;20467;-84
2022/09/05 01:25:03;;;;;;;4.33;2.40;;;15.10;99.90;;;16.00;100.00;98544.09;5017351;28;20468;-84
2022/09/05 01:27:56;;;;;;;3.47;2.70;;;15.00;99.90;;;15.89;100.00;98539.47;5015796;28;20520;-83
2022/09/05 01:30:52;;;;;;;3.63;3.17;;;15.00;99.90;;;15.84;100.00;98537.44;5018643;28;20485;-84
2022/09/05 01:33:42;;;;;;;3.13;2.70;;;15.10;99.90;;;15.75;100.00;98535.25;5021471;28;20537;-83
2022/09/05 01:36:52;;;;;;;3.23;2.57;;;15.00;99.90;;;15.68;100.00;98540.53;5020269;28;20450;-84
2022/09/05 01:39:35;;;;;;;3.17;2.40;;;14.90;99.90;;;15.63;100.00;98542.16;5004614;28;20455;-84
2022/09/05 01:42:39;;;;;;;3.20;2.73;;;14.80;99.90;;;15.63;100.00;98539.53;5019047;28;21160;-84
2022/09/05 01:45:21;;;;;;;2.20;2.00;;;14.80;99.90;;;15.62;100.00;98541.34;5016898;28;20437;-84
2022/09/05 01:48:04;;;;;;;4.90;2.87;;;14.80;99.90;;;15.57;100.00;98535.91;5017613;28;20478;-83
2022/09/05 01:50:48;;;;;;;3.00;2.50;;;14.70;99.90;;;15.58;100.00;98530.41;5017153;28;20443;-84
2022/09/05 01:53:33;;;;;;;3.07;2.40;;;14.70;99.90;;;15.52;100.00;98536.50;5018240;28;20442;-84
2022/09/05 01:56:39;;;;;;;5.50;2.67;;;14.70;99.90;;;15.50;100.00;98537.75;5018654;28;20518;-84
2022/09/05 01:59:39;;;;;;;2.53;2.33;;;14.60;99.90;;;15.41;100.00;98538.97;5016899;28;20497;-83
2022/09/05 02:02:32;;;;;;;4.17;2.70;;;14.60;99.90;;;15.41;100.00;98537.09;5017721;28;20467;-84
2022/09/05 02:05:45;;;;;;;2.80;2.47;;;14.60;99.90;;;15.45;100.00;98530.41;5021332;28;20459;-84
2022/09/05 02:08:49;;;;;;;3.27;2.60;;;14.60;99.90;;;15.40;100.00;98537.31;5012562;28;20553;-84
2022/09/05 02:11:18;;;;;;;10.70;2.80;;;14.50;99.90;;;15.27;100.00;98532.09;5016495;28;20474;-84
2022/09/05 02:14:20;;;;;;;3.10;2.40;;;14.40;99.90;;;15.33;100.00;98537.34;5015647;28;20508;-84
2022/09/05 02:17:19;;;;;;;6.30;2.87;;;14.50;99.90;;;15.40;100.00;98537.31;5018395;28;20458;-84
2022/09/05 02:20:21;;;;;;;3.07;2.43;;;14.40;99.90;;;15.36;100.00;98536.94;5017769;28;20506;-84
2022/09/05 02:23:03;;;;;;;3.73;2.87;;;14.40;99.90;;;15.25;100.00;98545.44;5016745;28;20503;-84
2022/09/05 02:26:04;;;;;;;2.77;2.27;;;14.40;99.90;;;15.20;100.00;98541.81;5015742;28;20482;-84
2022/09/05 02:28:45;;;;;;;2.93;2.60;;;14.40;99.90;;;15.15;100.00;98539.78;5013955;28;20517;-84
2022/09/05 02:31:23;;;;;;;3.47;2.67;;;14.30;99.90;;;15.01;100.00;98536.34;5020212;28;20944;-84
2022/09/05 02:34:00;;;;;;;3.10;2.57;;;14.30;99.90;;;15.00;100.00;98533.91;5017283;28;20509;-84
2022/09/05 02:36:42;;;;;;;3.53;2.60;;;14.20;99.90;;;15.02;100.00;98534.53;5013854;28;20466;-85
2022/09/05 02:39:21;;;;;;;3.00;2.17;;;14.20;99.90;;;15.04;100.00;98533.31;5015453;28;20517;-84
2022/09/05 02:42:20;;;;;;;4.30;2.80;;;14.20;99.90;;;15.08;100.00;98525.81;5014812;28;20553;-83
2022/09/05 02:45:22;;;;;;;2.80;2.27;;;14.20;99.90;;;15.09;100.00;98530.88;5016845;28;20459;-83
2022/09/05 02:48:07;;;;;;;3.33;2.17;;;14.20;99.90;;;15.09;100.00;98535.34;5015452;28;20474;-84
2022/09/05 02:51:01;;;;;;;3.70;2.83;;;14.20;99.90;;;15.03;100.00;98522.94;5013689;28;20459;-84
2022/09/05 02:53:57;;;;;;;3.60;2.57;;;14.20;99.90;;;14.99;100.00;98527.81;5013538;28;20472;-84
2022/09/05 02:57:28;;;;;;;2.50;2.27;;;14.10;99.90;;;14.89;100.00;98524.00;5015600;28;20549;-85
2022/09/05 03:00:22;;;;;;;3.97;2.40;;;14.10;99.90;;;14.92;100.00;98528.84;5017408;28;20537;-84
2022/09/05 03:03:20;;;;;;;2.70;2.40;;;14.00;99.90;;;14.94;100.00;98524.19;5017552;28;20462;-85
2022/09/05 03:05:58;;;;;;;2.67;2.47;;;14.00;99.90;;;14.99;100.00;98524.41;5017839;28;20474;-84
2022/09/05 03:09:03;;;;;;;3.50;2.60;;;14.00;99.90;;;14.95;100.00;98525.81;5016541;28;20500;-86
2022/09/05 03:12:41;;;;;;;3.27;2.70;;;14.00;99.90;;;14.94;100.00;98524.19;5016547;28;20462;-84
2022/09/05 03:16:34;;;;;;;3.83;2.50;;;14.00;99.90;;;14.86;100.00;98525.19;5017568;28;21175;-85
2022/09/05 03:20:08;;;;;;;3.57;2.90;;;14.00;99.90;;;14.80;100.00;98533.09;5014511;28;20509;-85
2022/09/05 03:23:38;;;;;;;3.90;3.00;;;14.00;99.90;;;14.78;100.00;98532.50;5021343;28;20486;-87
2022/09/05 03:26:49;;;;;;;3.03;2.33;;;13.90;99.90;;;14.74;100.00;98532.09;5015177;28;20572;-85
2022/09/05 03:30:11;;;;;;;2.73;2.00;;;14.00;99.90;;;14.70;100.00;98524.78;5017526;28;21065;-85
2022/09/05 03:33:46;;;;;;;2.90;2.30;;;13.90;99.90;;;14.67;100.00;98526.00;5001664;28;20501;-86
2022/09/05 03:37:04;;;;;;;2.90;2.67;;;13.90;99.90;;;14.66;100.00;98523.56;5018619;28;20446;-85
2022/09/05 03:40:28;;;;;;;4.63;2.40;;;13.90;99.90;;;14.58;100.00;98524.56;5016790;28;20589;-85
2022/09/05 03:43:57;;;;;;;3.80;2.70;;;13.90;99.90;;;14.52;100.00;98533.25;5017289;28;20462;-85
2022/09/05 03:47:00;;;;;;;4.03;3.27;;;13.80;99.90;;;14.51;100.00;98527.19;5008752;28;20571;-91
2022/09/05 03:50:01;;;;;;;2.90;2.50;;;13.70;99.90;;;14.49;100.00;98529.22;5016891;28;20471;-88
2022/09/05 03:53:18;;;;;;;2.97;2.40;;;13.70;99.90;;;14.43;100.00;98540.53;5021081;28;20482;-85
2022/09/05 03:56:37;;;;;;;5.57;2.83;;;13.60;99.90;;;14.39;100.00;98538.50;5022520;28;20490;-85
2022/09/05 04:00:06;;;;;;;3.20;2.57;;;13.60;99.90;;;14.42;100.00;98535.47;5021999;28;21027;-85
2022/09/05 04:02:47;;;;;;;5.40;3.47;;;13.70;99.90;;;14.43;100.00;98545.00;5022855;28;20441;-86
2022/09/05 04:05:40;;;;;;;4.13;2.90;;;13.60;99.90;;;14.35;100.00;98545.97;5015894;28;20451;-85
2022/09/05 04:08:45;;;;;;;2.90;2.53;;;13.50;99.90;;;14.32;100.00;98548.16;5018276;28;20517;-85
2022/09/05 04:11:29;;;;;;;3.20;2.30;;;13.50;99.90;;;14.34;100.00;98541.72;5018706;28;21070;-85
2022/09/05 04:14:02;;;;;;;3.47;2.80;;;13.60;99.90;;;14.36;100.00;98549.44;5020248;28;20482;-85
2022/09/05 04:16:46;;;;;;;4.30;2.67;;;13.60;99.90;;;14.32;100.00;98542.91;5021089;28;21174;-85
2022/09/05 04:19:28;;;;;;;2.60;2.40;;;13.50;99.90;;;14.34;100.00;98552.25;5014720;28;20505;-85
2022/09/05 04:22:18;;;;;;;3.70;2.43;;;13.50;99.90;;;14.27;100.00;98548.75;5020578;28;20473;-92
2022/09/05 04:25:02;;;;;;;3.60;2.50;;;13.50;99.90;;;14.29;100.00;98548.56;5019493;28;20474;-87
2022/09/05 04:27:47;;;;;;;2.23;2.03;;;13.50;99.90;;;14.25;100.00;98548.16;5019969;28;20494;-86
2022/09/05 04:30:39;;;;;;;2.60;2.40;;;13.50;99.90;;;14.20;100.00;98550.53;5017255;28;20521;-87
2022/09/05 04:33:23;;;;;;;2.83;2.53;;;13.50;99.90;;;14.22;100.00;98543.28;5017724;28;20463;-86
2022/09/05 04:36:21;;;;;;;2.50;2.30;;;13.40;99.90;;;14.18;100.00;98546.50;5020346;28;20477;-85
2022/09/05 04:39:25;;;;;;;4.03;2.60;;;13.40;99.90;;;14.19;100.00;98548.94;5019285;28;20544;-87
2022/09/05 04:42:09;;;;;;;2.60;2.30;;;13.30;99.90;;;14.16;100.00;98549.31;5019558;28;20526;-87
2022/09/05 04:44:52;;;;;;;3.17;2.80;;;13.30;99.90;;;14.13;100.00;98552.34;5019833;28;20477;-86
2022/09/05 04:47:30;;;;;;;3.00;2.30;;;13.30;99.90;;;14.17;100.00;98550.94;5022033;28;20481;-86
2022/09/05 04:50:11;;;;;;;3.33;3.03;;;13.20;99.90;;;14.16;100.00;98556.41;5015315;28;20493;-86
2022/09/05 04:53:12;;;;;;;3.93;2.50;;;13.30;99.90;;;14.11;100.00;98557.00;5018336;28;20454;-85
2022/09/05 04:55:46;;;;;;;4.17;2.67;;;13.30;99.90;;;14.05;100.00;98563.06;5017643;28;20470;-86
2022/09/05 04:58:31;;;;;;;2.47;2.23;;;13.20;99.90;;;14.07;100.00;98561.03;5016426;28;20466;-86
2022/09/05 05:01:26;;;;;;;2.77;2.00;;;13.20;99.90;;;14.07;100.00;98559.22;5016560;28;20544;-85
2022/09/05 05:04:23;;;;;;;3.37;2.60;;;13.20;99.90;;;14.05;100.00;98563.06;5017379;28;20477;-86
2022/09/05 05:07:23;;;;;;;4.37;2.40;;;13.20;99.90;;;14.07;100.00;98572.38;5022203;28;20488;-85
2022/09/05 05:10:00;;;;;;;3.10;2.60;;;13.20;99.90;;;14.11;100.00;98567.53;5017026;28;20450;-85
2022/09/05 05:13:06;;;;;;;5.30;2.60;;;13.20;99.90;;;14.09;100.00;98567.69;5019723;28;20497;-85
2022/09/05 05:16:00;;;;;;;2.67;2.43;;;13.30;99.90;;;14.09;100.00;98572.19;5019419;28;20525;-87
2022/09/05 05:18:53;;;;;;;2.97;2.57;;;13.20;99.90;;;14.07;100.00;98576.81;5021030;28;20935;-85
2022/09/05 05:21:35;;;;;;;4.13;2.40;;;13.20;99.90;;;14.06;100.00;98580.44;5019932;28;20469;-85
2022/09/05 05:24:15;;;;;;;2.50;2.30;;;13.20;99.90;;;14.07;100.00;98571.53;5019405;28;20464;-85
2022/09/05 05:26:53;;;;;;;2.80;2.20;;;13.20;99.90;;;14.08;100.00;98579.25;5020514;28;20484;-86
2022/09/05 05:29:33;;;;;;;3.90;2.63;;;13.20;99.90;;;14.11;100.00;98581.47;5020135;28;20991;-86
2022/09/05 05:32:07;;;;;;;3.13;2.40;;;13.20;99.90;;;14.19;100.00;98577.88;5019012;28;21026;-87
2022/09/05 05:34:45;;;;;;;3.60;2.97;;;13.20;99.90;;;14.18;100.00;98583.31;5018245;28;20984;-85
2022/09/05 05:37:21;;;;;;;3.97;2.77;;;13.30;99.90;;;14.18;100.00;98585.97;5019403;28;20447;-86
2022/09/05 05:40:07;;;;;;;3.53;2.65;;;13.20;99.90;;;14.18;100.00;98580.69;5019432;28;20504;-87
2022/09/05 05:42:40;;;;;;;3.50;2.80;;;13.20;99.90;;;14.17;100.00;98581.69;5020083;28;20235;-87
2022/09/05 05:45:19;;;;;;;2.67;2.37;;;13.20;99.90;;;14.19;100.00;98583.13;5020079;28;20969;-87
2022/09/05 05:47:54;;;;;;;3.57;2.43;;;13.20;99.90;;;14.16;100.00;98582.72;5022936;28;20483;-87
2022/09/05 05:50:40;;;;;;;2.60;2.07;;;13.20;99.90;;;14.15;100.00;98584.53;5019930;28;20457;-87
2022/09/05 05:53:31;;;;;;;4.30;2.63;;;13.20;99.90;;;14.15;100.00;98584.53;5025300;28;20453;-87
2022/09/05 05:56:40;;;;;;;6.27;2.90;;;13.20;99.90;;;14.12;100.00;98579.66;5022014;28;20469;-86
2022/09/05 05:59:49;;;;;;;3.23;2.70;;;13.30;99.90;;;14.13;100.00;98583.91;5016149;28;20451;-87
2022/09/05 06:03:14;;;;;;;3.23;2.10;;;13.30;99.90;;;14.18;100.00;98591.22;5021266;28;20473;-86
2022/09/05 06:06:29;;;;;;;6.00;2.70;;;13.30;99.90;;;14.24;100.00;98593.06;5021512;28;20461;-86
2022/09/05 06:09:42;;;;;;;4.00;2.50;;;13.30;99.90;;;14.25;100.00;98600.75;5020337;28;21359;-86
2022/09/05 06:13:33;;;;;;;7.00;2.97;;;13.40;99.90;;;14.25;100.00;98594.69;5020369;28;20497;-86
2022/09/05 06:17:01;;;;;;;8.33;3.23;;;13.40;99.90;;;14.33;100.00;98595.34;5020963;28;20475;-85
2022/09/05 06:20:19;;;;;;;3.80;2.50;;;13.50;99.90;;;14.38;100.00;98600.84;5019083;28;20486;-86
2022/09/05 06:23:48;;;;;;;4.57;3.23;;;13.50;99.90;;;14.41;100.00;98597.81;4994858;28;20555;-87
2022/09/05 06:27:09;;;;;;;3.93;3.23;;;13.50;99.90;;;14.49;100.00;98584.47;5018312;28;20462;-86
2022/09/05 06:29:57;;;;;;;3.13;2.80;;;13.60;99.90;;;14.57;100.00;98594.84;5010643;28;20451;-87
2022/09/05 06:32:53;;;;;;;5.57;3.30;;;13.60;99.90;;;14.68;100.00;98592.63;5021064;28;20497;-86
2022/09/05 06:35:46;;;;;;;4.63;3.03;;;13.70;99.90;;;14.74;100.00;98594.47;5020963;28;20474;-86
2022/09/05 06:38:47;;;;;;;5.90;3.00;;;13.80;99.90;;;14.80;100.00;98583.94;5021151;28;20459;-86
2022/09/05 06:41:33;;;;;;;2.87;2.57;;;13.80;99.90;;;14.88;100.00;98591.66;5017229;28;20519;-86
2022/09/05 06:44:41;;;;;;;3.37;3.07;;;14.00;99.90;;;14.94;100.00;98584.75;5021449;28;20459;-87
2022/09/05 06:47:18;;;;;;;4.70;3.20;;;14.00;99.90;;;14.97;100.00;98581.72;5021202;28;20459;-86
2022/09/05 06:50:12;;;;;;;5.80;2.17;;;14.00;99.90;;;14.98;100.00;98589.44;5022173;28;20585;-86
2022/09/05 06:53:53;;;;;;;4.43;2.73;;;14.10;99.90;;;15.00;100.00;98591.84;5021950;28;20456;-87
2022/09/05 06:56:49;;;;;;;5.53;2.70;;;14.20;99.90;;;15.02;100.00;98584.56;5019631;28;20516;-86
2022/09/05 07:00:06;;;;;;;6.00;2.90;;;14.20;99.90;;;15.09;100.00;98588.03;5020468;28;20524;-86
2022/09/05 07:03:29;;;;;;;3.90;2.97;;;14.20;99.90;;;15.16;100.00;98596.75;5018794;28;20469;-87
2022/09/05 07:06:08;;;;;;;3.87;2.87;;;14.20;99.90;;;15.24;100.00;98595.72;5021262;28;20465;-86
2022/09/05 07:08:56;;;;;;;4.80;2.57;;;14.30;99.90;;;15.30;100.00;98590.47;5017597;28;20513;-87
2022/09/05 07:11:37;;;;;;;5.70;2.77;;;14.40;99.90;;;15.36;100.00;98589.63;5017941;28;20462;-87
2022/09/05 07:14:18;;;;;;;4.30;2.90;;;14.50;99.90;;;15.42;100.00;98596.72;5020771;28;20524;-86
2022/09/05 07:16:53;;;;;;;3.60;2.57;;;14.50;99.90;;;15.49;100.00;98594.91;5019176;28;20446;-87
2022/09/05 07:19:30;;;;;;;5.37;2.50;;;14.60;99.90;;;15.55;100.00;98588.81;5020908;28;20446;-86
2022/09/05 07:22:27;;;;;;;5.67;2.47;;;14.60;99.90;;;15.64;100.00;98594.69;5019711;28;20472;-86
2022/09/05 07:25:22;;;;;;;3.93;2.80;;;14.70;99.90;;;15.72;100.00;98593.69;5019244;28;20446;-87
2022/09/05 07:27:58;;;;;;;10.70;3.33;;;14.80;99.90;;;15.78;100.00;98598.13;5023283;28;20462;-87
2022/09/05 07:30:54;;;;;;;3.17;2.50;;;14.90;99.90;;;15.85;100.00;98598.91;5024567;28;20489;-87
2022/09/05 07:33:29;;;;;;;3.67;2.53;;;15.00;99.90;;;15.91;100.00;98598.09;5025153;28;20958;-86
2022/09/05 07:36:10;;;;;;;9.50;2.93;;;15.10;99.90;;;15.99;100.00;98597.88;5023436;28;20468;-86
2022/09/05 07:38:42;;;;;;;5.13;2.67;;;15.20;99.90;;;16.05;100.00;98605.75;5025391;28;20447;-86
2022/09/05 07:41:30;;;;;;;5.93;2.57;;;15.20;99.90;;;16.12;100.00;98595.19;5022320;28;20537;-86
2022/09/05 07:44:08;;;;;;;4.97;2.47;;;15.30;99.90;;;16.19;100.00;98595.16;5022941;28;20685;-86
2022/09/05 07:46:41;;;;;;;4.20;2.60;;;15.40;99.90;;;16.26;100.00;98588.00;5025714;28;20438;-86
2022/09/05 07:49:17;;;;;;;4.17;2.40;;;15.40;99.90;;;16.33;100.00;98592.25;5023872;28;20482;-86
2022/09/05 07:51:54;;;;;;;3.50;2.63;;;15.50;99.90;;;16.40;100.00;98584.28;5024902;28;20490;-86
2022/09/05 07:54:45;;;;;;;9.57;2.80;;;15.50;99.90;;;16.47;100.00;98590.34;5021727;28;20546;-86
2022/09/05 07:57:44;;;;;;;7.13;2.70;;;15.60;99.90;;;16.54;100.00;98586.66;5021149;28;20499;-86
2022/09/05 08:00:22;;;;;;;3.73;2.27;;;15.70;99.90;;;16.62;100.00;98582.19;5023199;28;20551;-86
2022/09/05 08:03:00;;;;;;;6.20;3.00;;;15.80;99.90;;;16.70;100.00;98576.63;5023739;28;20952;-86
2022/09/05 08:05:41;;;;;;;3.97;2.47;;;15.90;99.90;;;16.77;100.00;98572.13;5023480;28;20512;-86
2022/09/05 08:08:18;;;;;;;2.80;2.53;;;16.00;99.90;;;16.84;100.00;98568.41;5022406;28;20457;-87
2022/09/05 08:10:57;;;;;;;3.87;2.70;;;16.10;99.90;;;16.93;100.00;98579.53;5023457;28;20458;-85
2022/09/05 08:13:57;;;;;;;5.40;2.50;;;16.20;99.90;;;17.02;100.00;98571.13;5025366;28;20551;-86
2022/09/05 08:16:46;;;;;;;3.17;2.50;;;16.30;99.90;;;17.11;100.00;98583.03;5018804;28;20523;-86
2022/09/05 08:19:53;;;;;;;8.87;2.40;;;16.40;99.90;;;17.19;100.00;98578.53;5019356;28;20537;-86
2022/09/05 08:22:34;;;;;;;6.00;2.80;;;16.50;99.90;;;17.27;100.00;98570.31;5021347;28;20439;-86
2022/09/05 08:25:18;;;;;;;3.30;2.27;;;16.60;99.90;;;17.34;100.00;98574.53;5019704;28;20458;-86
2022/09/05 08:28:06;;;;;;;5.37;2.67;;;16.70;99.90;;;17.44;100.00;98571.38;5019433;28;20457;-87
2022/09/05 08:30:44;;;;;;;7.43;2.33;;;16.80;99.90;;;17.53;100.00;98570.06;5017981;28;20506;-85
2022/09/05 08:33:23;;;;;;;3.50;2.40;;;16.90;99.90;;;17.62;100.00;98565.34;5019206;28;20470;-86
2022/09/05 08:35:56;;;;;;;6.93;2.50;;;17.00;99.90;;;17.71;100.00;98572.78;5020434;28;20466;-84
2022/09/05 08:38:35;;;;;;;9.70;2.43;;;17.00;99.90;;;17.82;100.00;98571.25;5020836;28;20835;-86
2022/09/05 08:41:20;;;;;;;2.70;2.10;;;17.20;99.90;;;17.94;100.00;98564.19;5023242;28;20531;-85
2022/09/05 08:44:19;;;;;;;3.47;2.20;;;17.20;99.90;;;18.05;100.00;98568.72;5024399;28;20479;-87
2022/09/05 08:47:28;;;;;;;2.70;2.00;;;17.40;99.90;;;18.16;100.00;98560.03;5024101;28;20474;-86
2022/09/05 08:50:55;;;;;;;2.30;2.10;;;17.50;99.90;;;18.32;100.00;98566.59;5022434;28;20505;-86
2022/09/05 08:53:43;;;;;;;5.03;1.90;;;17.70;99.90;;;18.42;100.00;98570.31;5017452;28;21085;-85
2022/09/05 08:56:22;;;;;;;6.10;2.53;;;17.80;99.90;;;18.51;100.00;98563.69;5021697;28;20482;-86
2022/09/05 08:59:12;;;;;;;3.47;2.30;;;17.90;99.90;;;18.62;100.00;98561.31;5022455;28;20474;-86
2022/09/05 09:02:56;;;;;;;4.90;1.90;;;18.00;99.90;;;18.73;100.00;98560.53;5022369;28;21032;-86
2022/09/05 09:06:13;;;;;;;4.00;2.27;;;18.20;99.90;;;18.86;100.00;98552.38;5022603;28;20458;-86
2022/09/05 09:09:18;;;;;;;3.70;1.77;;;18.30;99.90;;;18.97;100.00;98555.06;5020611;28;20529;-85
2022/09/05 09:11:57;;;;;;;3.13;2.20;;;18.50;99.90;;;19.09;100.00;98552.41;5019818;28;20465;-85
2022/09/05 09:14:52;;;;;;;2.60;1.90;;;18.50;99.90;;;19.19;100.00;98547.38;5023792;28;20457;-86
2022/09/05 09:17:36;;;;;;;6.60;1.90;;;18.70;99.90;;;19.30;100.00;98535.94;5022270;28;20453;-86
2022/09/05 09:20:40;;;;;;;8.50;2.10;;;18.80;99.90;;;19.43;100.00;98530.47;5022636;28;20509;-86
2022/09/05 09:23:33;;;;;;;2.40;2.20;;;18.90;99.90;;;19.52;100.00;98530.91;5018874;28;20462;-87
2022/09/05 09:26:14;;;;;;;2.50;1.97;;;19.00;99.90;;;19.63;100.00;98522.13;5020874;28;20471;-86
2022/09/05 09:28:56;;;;;;;2.53;1.90;;;19.10;99.90;;;19.72;100.00;98530.53;5020501;28;20450;-86
2022/09/05 09:31:54;;;;;;;2.03;1.67;;;19.30;99.90;;;19.82;100.00;98520.13;5020560;28;20894;-86
2022/09/05 09:34:46;;;;;;;3.37;2.30;;;19.40;99.90;;;19.97;100.00;98515.13;5021435;28;20459;-87
2022/09/05 09:38:13;;;;;;;2.43;1.80;;;19.50;99.90;;;20.09;100.00;98514.06;5020471;28;20453;-86
2022/09/05 09:41:29;;;;;;;2.53;1.90;;;19.60;99.90;;;20.23;100.00;98519.91;5020688;28;20517;-86
2022/09/05 09:45:15;;;;;;;4.60;2.27;;;19.70;99.90;;;20.45;100.00;98509.41;5022635;28;20446;-85
2022/09/05 09:48:55;;;;;;;5.73;2.07;;;19.90;99.60;;;20.55;100.00;98504.28;5022045;28;20456;-86
2022/09/05 09:51:53;;;;;;;2.40;2.00;;;20.10;99.80;;;20.63;100.00;98495.91;5021605;28;20446;-86
2022/09/05 09:55:12;;;;;;;5.20;2.50;;;20.20;99.50;;;20.74;100.00;98496.91;5020909;28;20451;-86
2022/09/05 09:58:28;;;;;;;4.27;2.40;;;20.30;99.20;;;20.87;98.55;98491.25;5022528;28;21135;-85
2022/09/05 10:01:25;;;;;;;3.53;1.80;;;20.50;98.40;;;20.99;96.87;98489.34;5000282;28;20449;-86
2022/09/05 10:04:33;;;;;;;3.67;1.70;;;20.60;98.30;;;21.08;88.08;98488.66;5022382;28;20456;-86
2022/09/05 10:08:08;;;;;;;3.10;1.43;;;20.70;96.50;;;21.30;84.51;98491.41;5020032;28;20891;-86
2022/09/05 10:11:38;;;;;;;4.23;1.90;;;20.90;95.60;;;21.50;80.92;98483.72;5021557;28;20528;-86
2022/09/05 10:15:01;;;;;;;2.37;1.47;;;21.20;94.80;;;21.69;81.88;98489.56;5019771;28;20458;-86
2022/09/05 10:18:44;;;;;;;2.07;1.57;;;21.30;95.00;;;21.89;81.38;98478.31;5019415;28;20844;-86
2022/09/05 10:21:59;;;;;;;2.83;1.73;;;21.60;94.90;;;22.01;80.81;98471.03;5021842;28;20474;-86
2022/09/05 10:25:35;;;;;;;2.60;1.67;;;21.60;94.70;;;22.16;80.28;98457.88;5021747;28;20454;-86
2022/09/05 10:28:07;;;;;;;2.17;1.77;;;21.70;94.90;;;22.27;80.75;98464.91;5021022;28;20471;-87
2022/09/05 10:30:55;;;;;;;3.20;1.60;;;21.90;94.80;;;22.37;78.99;98459.69;5019394;28;20498;-87
2022/09/05 10:33:56;;;;;;;3.10;1.87;;;22.00;94.40;;;22.49;71.49;98456.88;5019089;28;20890;-86
2022/09/05 10:36:53;;;;;;;2.80;1.80;;;22.20;92.40;;;22.61;72.75;98452.16;5021475;28;20451;-86
2022/09/05 10:39:28;;;;;;;2.40;1.90;;;22.20;93.00;;;22.71;71.13;98446.13;5021573;28;20445;-86
2022/09/05 10:42:03;;;;;;;2.00;1.50;;;22.30;92.50;;;22.86;69.45;98444.38;5020274;28;21010;-86
2022/09/05 10:44:39;;;;;;;2.77;1.87;;;22.60;92.20;;;22.99;69.49;98441.28;5022411;28;20458;-86
2022/09/05 10:47:26;;;;;;;5.13;2.27;;;22.60;92.30;;;23.11;67.87;98442.94;5021758;28;21048;-86
2022/09/05 10:50:15;;;;;;;10.80;1.67;;;22.70;91.90;;;23.17;67.39;98429.38;5021829;28;21055;-86
2022/09/05 10:53:09;;;;;;;3.77;1.47;;;22.80;91.80;;;23.26;68.33;98421.66;5021327;28;20515;-86
2022/09/05 10:55:56;;;;;;;3.80;1.80;;;22.80;92.10;;;23.31;68.88;98419.03;5021348;28;20453;-86
2022/09/05 10:58:48;;;;;;;2.40;1.60;;;22.90;92.20;;;23.35;68.43;98430.81;5019821;28;20465;-85
2022/09/05 11:01:40;;;;;;;3.13;1.70;;;22.90;92.20;;;23.41;68.04;98422.59;5018457;28;20549;-85
2022/09/05 11:04:49;;;;;;;2.10;1.87;;;23.00;92.00;;;23.45;68.22;98417.53;5019847;28;20545;-85
2022/09/05 11:07:36;;;;;;;2.80;1.70;;;23.00;92.10;;;23.50;69.29;98415.69;5021723;28;20448;-85
2022/09/05 11:10:13;;;;;;;4.07;2.00;;;23.00;92.40;;;23.55;68.76;98420.25;5019401;28;20523;-87
2022/09/05 11:13:16;;;;;;;3.20;1.97;;;23.10;92.20;;;23.62;67.85;98417.31;5021720;28;20797;-85
2022/09/05 11:16:07;;;;;;;5.90;1.80;;;23.20;91.70;;;23.71;67.10;98418.41;5021071;28;20470;-85
2022/09/05 11:18:55;;;;;;;2.50;1.90;;;23.20;91.40;;;23.77;65.03;98404.03;5020670;28;20458;-85
2022/09/05 11:22:00;;;;;;;2.90;1.80;;;23.30;91.10;;;23.84;64.49;98401.91;5019326;28;20454;-86
2022/09/05 11:24:56;;;;;;;2.20;1.43;;;23.40;91.20;;;23.90;65.26;98395.50;5020444;28;20537;-86
2022/09/05 11:27:35;;;;;;;2.53;1.87;;;23.40;91.40;;;23.94;63.11;98393.91;5020415;28;20971;-85
2022/09/05 11:30:11;;;;;;;2.40;1.90;;;23.50;90.90;;;23.98;62.89;98389.66;5022446;28;20905;-87
2022/09/05 11:33:55;;;;;;;1.83;1.63;;;23.60;90.70;;;24.07;62.80;98388.06;5022640;28;20496;-88
2022/09/05 11:36:50;;;;;;;1.70;1.50;;;23.60;90.80;;;24.22;60.97;98387.31;5020608;28;20442;-88
2022/09/05 11:40:42;;;;;;;2.47;1.87;;;23.80;90.10;;;24.33;58.59;98397.72;5016221;28;20487;-87
2022/09/05 11:44:08;;;;;;;2.30;1.90;;;23.90;89.10;;;24.40;59.92;98392.13;5018548;28;20561;-87
2022/09/05 11:47:37;;;;;;;2.00;1.80;;;23.90;90.20;;;24.47;58.78;98390.78;5019002;28;20496;-88
2022/09/05 11:50:59;;;;;;;2.53;1.70;;;24.00;89.70;;;24.58;57.70;98391.56;5021103;28;20561;-87
2022/09/05 11:53:55;;;;;;;3.47;1.70;;;24.10;89.00;;;24.63;57.61;98382.75;5018627;28;20462;-87
2022/09/05 11:57:00;;;;;;;3.30;1.57;;;24.20;89.00;;;24.66;57.22;98377.66;5020640;28;20541;-88
2022/09/05 12:00:19;;;;;;;2.00;1.63;;;24.30;88.80;;;24.70;57.86;98372.56;5020922;28;20446;-87
2022/09/05 12:03:46;;;;;;;1.70;1.60;;;24.20;88.60;;;24.75;58.00;98380.59;5020881;28;20451;-87
2022/09/05 12:07:28;;;;;;;3.00;1.87;;;24.30;89.40;;;24.79;57.02;98374.41;4979991;28;21014;-88
2022/09/05 12:10:31;;;;;;;7.23;1.93;;;24.40;88.30;;;24.88;55.56;98361.34;5018185;28;20485;-87
2022/09/05 12:13:39;;;;;;;2.60;1.70;;;24.40;87.50;;;24.90;55.41;98362.66;5021402;28;21410;-87
2022/09/05 12:16:25;;;;;;;2.87;1.90;;;24.50;88.00;;;24.95;54.78;98361.84;5022624;28;20529;-88